Terminal Aerodrome Forecast
Issued by NWS North Platte, NE

Home | Current Version | Previous Version | Graphics & Text | Print | Product List | Glossary Off
Versions: 1 2 3 4 5 6 7 8 9 10 11 12 13 14 15 16 17

427
FTUS43 KLBF 280520
TAFVTN
TAF
KVTN 280520Z 2806/2906 13006KT P6SM VCSH BKN080 BKN150
     FM281000 14006KT P6SM SCT080 BKN150
     FM281300 16006KT P6SM BKN150
     FM281600 17010KT P6SM BKN200
     FM282300 14011KT P6SM BKN110
     FM290500 16007KT P6SM BKN070=

USA.gov is the U.S. government's official web portal to all federal, state and local government web resources and services.